sensor_id;sensor_type;location;lat;lon;timestamp;temperature;humidity
1702;DHT22;848;48.354;10.064;2023-04-01T00:00:46;8.80;99.90
1702;DHT22;848;48.354;10.064;2023-04-01T00:03:13;8.70;99.90
1702;DHT22;848;48.354;10.064;2023-04-01T00:05:41;8.70;99.90
1702;DHT22;848;48.354;10.064;2023-04-01T00:08:08;8.70;99.90
1702;DHT22;848;48.354;10.064;2023-04-01T00:10:35;8.70;99.90
1702;DHT22;848;48.354;10.064;2023-04-01T00:13:02;8.70;99.90
1702;DHT22;848;48.354;10.064;2023-04-01T00:15:33;8.60;99.90
1702;DHT22;848;48.354;10.064;2023-04-01T00:18:00;8.70;99.90
1702;DHT22;848;48.354;10.064;2023-04-01T00:20:28;8.70;99.90
1702;DHT22;848;48.354;10.064;2023-04-01T00:22:56;8.60;99.90
1702;DHT22;848;48.354;10.064;2023-04-01T00:25:23;8.50;99.90
1702;DHT22;848;48.354;10.064;2023-04-01T00:27:50;8.50;99.90
1702;DHT22;848;48.354;10.064;2023-04-01T00:30:18;8.50;99.90
1702;DHT22;848;48.354;10.064;2023-04-01T00:32:45;8.60;99.90
1702;DHT22;848;48.354;10.064;2023-04-01T00:35:12;8.50;99.90
1702;DHT22;848;48.354;10.064;2023-04-01T00:37:39;8.50;99.90
1702;DHT22;848;48.354;10.064;2023-04-01T00:40:20;8.50;99.90
1702;DHT22;848;48.354;10.064;2023-04-01T00:42:48;8.60;99.90
1702;DHT22;848;48.354;10.064;2023-04-01T00:45:31;8.50;99.90
1702;DHT22;848;48.354;10.064;2023-04-01T00:48:01;8.50;99.90
1702;DHT22;848;48.354;10.064;2023-04-01T00:50:29;8.40;99.90
1702;DHT22;848;48.354;10.064;2023-04-01T00:52:57;8.40;99.90
1702;DHT22;848;48.354;10.064;2023-04-01T00:55:28;8.40;99.90
1702;DHT22;848;48.354;10.064;2023-04-01T00:57:58;8.40;99.90
1702;DHT22;848;48.354;10.064;2023-04-01T01:00:27;8.40;99.90
1702;DHT22;848;48.354;10.064;2023-04-01T01:02:54;8.40;99.90
1702;DHT22;848;48.354;10.064;2023-04-01T01:05:29;8.40;99.90
1702;DHT22;848;48.354;10.064;2023-04-01T01:08:03;8.30;99.90
1702;DHT22;848;48.354;10.064;2023-04-01T01:10:33;8.30;99.90
1702;DHT22;848;48.354;10.064;2023-04-01T01:13:07;8.30;99.90
1702;DHT22;848;48.354;10.064;2023-04-01T01:15:39;8.30;99.90
1702;DHT22;848;48.354;10.064;2023-04-01T01:18:16;8.30;99.90
1702;DHT22;848;48.354;10.064;2023-04-01T01:21:16;8.20;99.90
1702;DHT22;848;48.354;10.064;2023-04-01T01:24:26;8.20;99.90
1702;DHT22;848;48.354;10.064;2023-04-01T01:27:04;8.20;99.90
1702;DHT22;848;48.354;10.064;2023-04-01T01:30:00;8.20;99.90
1702;DHT22;848;48.354;10.064;2023-04-01T01:32:59;8.20;99.90
1702;DHT22;848;48.354;10.064;2023-04-01T01:35:31;8.10;99.90
1702;DHT22;848;48.354;10.064;2023-04-01T01:38:01;8.10;99.90
1702;DHT22;848;48.354;10.064;2023-04-01T01:40:31;8.10;99.90
1702;DHT22;848;48.354;10.064;2023-04-01T01:43:02;8.10;99.90
1702;DHT22;848;48.354;10.064;2023-04-01T01:45:31;8.10;99.90
1702;DHT22;848;48.354;10.064;2023-04-01T01:48:00;8.20;99.90
1702;DHT22;848;48.354;10.064;2023-04-01T01:50:30;8.20;99.90
1702;DHT22;848;48.354;10.064;2023-04-01T01:53:02;8.20;99.90
1702;DHT22;848;48.354;10.064;2023-04-01T01:55:30;8.10;99.90
1702;DHT22;848;48.354;10.064;2023-04-01T01:58:00;8.10;99.90
1702;DHT22;848;48.354;10.064;2023-04-01T02:00:28;8.10;99.90
1702;DHT22;848;48.354;10.064;2023-04-01T02:02:56;8.00;99.90
1702;DHT22;848;48.354;10.064;2023-04-01T02:05:26;8.00;99.90
1702;DHT22;848;48.354;10.064;2023-04-01T02:08:01;8.00;99.90
1702;DHT22;848;48.354;10.064;2023-04-01T02:10:35;8.00;99.90
1702;DHT22;848;48.354;10.064;2023-04-01T02:13:07;8.00;99.90
1702;DHT22;848;48.354;10.064;2023-04-01T02:15:41;8.00;99.90
1702;DHT22;848;48.354;10.064;2023-04-01T02:18:10;8.00;99.90
1702;DHT22;848;48.354;10.064;2023-04-01T02:20:39;8.00;99.90
1702;DHT22;848;48.354;10.064;2023-04-01T02:23:10;7.90;99.90
1702;DHT22;848;48.354;10.064;2023-04-01T02:25:37;7.90;99.90
1702;DHT22;848;48.354;10.064;2023-04-01T02:28:08;7.90;99.90
1702;DHT22;848;48.354;10.064;2023-04-01T02:30:37;8.00;99.90
1702;DHT22;848;48.354;10.064;2023-04-01T02:33:06;8.00;99.90
1702;DHT22;848;48.354;10.064;2023-04-01T02:35:35;7.90;99.90
1702;DHT22;848;48.354;10.064;2023-04-01T02:38:07;7.90;99.90
1702;DHT22;848;48.354;10.064;2023-04-01T02:40:43;7.90;99.90
1702;DHT22;848;48.354;10.064;2023-04-01T02:43:10;7.90;99.90
1702;DHT22;848;48.354;10.064;2023-04-01T02:45:37;8.00;99.90
1702;DHT22;848;48.354;10.064;2023-04-01T02:48:05;7.90;99.90
1702;DHT22;848;48.354;10.064;2023-04-01T02:50:32;7.80;99.90
1702;DHT22;848;48.354;10.064;2023-04-01T02:53:02;7.80;99.90
1702;DHT22;848;48.354;10.064;2023-04-01T02:55:33;7.80;99.90
1702;DHT22;848;48.354;10.064;2023-04-01T02:58:00;7.80;99.90
1702;DHT22;848;48.354;10.064;2023-04-01T03:00:27;7.90;99.90
1702;DHT22;848;48.354;10.064;2023-04-01T03:02:54;7.80;99.90
1702;DHT22;848;48.354;10.064;2023-04-01T03:05:21;7.80;99.90
1702;DHT22;848;48.354;10.064;2023-04-01T03:07:49;8.00;99.90
1702;DHT22;848;48.354;10.064;2023-04-01T03:10:16;7.70;99.90
1702;DHT22;848;48.354;10.064;2023-04-01T03:12:44;7.80;99.90
1702;DHT22;848;48.354;10.064;2023-04-01T03:15:12;7.80;99.90
1702;DHT22;848;48.354;10.064;2023-04-01T03:17:40;7.70;99.90
1702;DHT22;848;48.354;10.064;2023-04-01T03:20:09;7.80;99.90
1702;DHT22;848;48.354;10.064;2023-04-01T03:22:36;7.80;99.90
1702;DHT22;848;48.354;10.064;2023-04-01T03:25:05;7.70;99.90
1702;DHT22;848;48.354;10.064;2023-04-01T03:27:33;7.70;99.90
1702;DHT22;848;48.354;10.064;2023-04-01T03:30:01;7.70;99.90
1702;DHT22;848;48.354;10.064;2023-04-01T03:32:28;7.70;99.90
1702;DHT22;848;48.354;10.064;2023-04-01T03:34:55;7.70;99.90
1702;DHT22;848;48.354;10.064;2023-04-01T03:37:25;7.70;99.90
1702;DHT22;848;48.354;10.064;2023-04-01T03:39:51;7.70;99.90
1702;DHT22;848;48.354;10.064;2023-04-01T03:42:18;7.70;99.90
1702;DHT22;848;48.354;10.064;2023-04-01T03:44:45;7.70;99.90
1702;DHT22;848;48.354;10.064;2023-04-01T03:47:14;7.70;99.90
1702;DHT22;848;48.354;10.064;2023-04-01T03:49:41;7.70;99.90
1702;DHT22;848;48.354;10.064;2023-04-01T03:52:09;7.70;99.90
1702;DHT22;848;48.354;10.064;2023-04-01T03:54:36;7.70;99.90
1702;DHT22;848;48.354;10.064;2023-04-01T03:57:03;7.70;99.90
1702;DHT22;848;48.354;10.064;2023-04-01T03:59:30;7.80;99.90
1702;DHT22;848;48.354;10.064;2023-04-01T04:01:57;7.80;99.90
1702;DHT22;848;48.354;10.064;2023-04-01T04:04:26;7.80;99.90
1702;DHT22;848;48.354;10.064;2023-04-01T04:06:53;7.80;99.90
1702;DHT22;848;48.354;10.064;2023-04-01T04:09:20;7.80;99.90
1702;DHT22;848;48.354;10.064;2023-04-01T04:11:47;7.80;99.90
1702;DHT22;848;48.354;10.064;2023-04-01T04:14:14;7.90;99.90
1702;DHT22;848;48.354;10.064;2023-04-01T04:16:41;8.00;99.90
1702;DHT22;848;48.354;10.064;2023-04-01T04:19:08;8.00;99.90
1702;DHT22;848;48.354;10.064;2023-04-01T04:21:36;8.10;99.90
1702;DHT22;848;48.354;10.064;2023-04-01T04:24:04;8.00;99.90
1702;DHT22;848;48.354;10.064;2023-04-01T04:26:31;8.00;99.90
1702;DHT22;848;48.354;10.064;2023-04-01T04:28:58;7.90;99.90
1702;DHT22;848;48.354;10.064;2023-04-01T04:31:25;7.90;99.90
1702;DHT22;848;48.354;10.064;2023-04-01T04:33:53;7.90;99.90
1702;DHT22;848;48.354;10.064;2023-04-01T04:36:20;7.90;99.90
1702;DHT22;848;48.354;10.064;2023-04-01T04:38:49;7.90;99.90
1702;DHT22;848;48.354;10.064;2023-04-01T04:41:18;8.00;99.90
1702;DHT22;848;48.354;10.064;2023-04-01T04:43:50;8.00;99.90
1702;DHT22;848;48.354;10.064;2023-04-01T04:46:17;8.00;99.90
1702;DHT22;848;48.354;10.064;2023-04-01T04:48:45;8.00;99.90
1702;DHT22;848;48.354;10.064;2023-04-01T04:51:14;8.00;99.90
1702;DHT22;848;48.354;10.064;2023-04-01T04:53:42;8.00;99.90
1702;DHT22;848;48.354;10.064;2023-04-01T04:56:10;8.00;99.90
1702;DHT22;848;48.354;10.064;2023-04-01T04:58:38;8.00;99.90
1702;DHT22;848;48.354;10.064;2023-04-01T05:01:07;7.90;99.90
1702;DHT22;848;48.354;10.064;2023-04-01T05:03:34;7.90;99.90
1702;DHT22;848;48.354;10.064;2023-04-01T05:06:00;7.90;99.90
1702;DHT22;848;48.354;10.064;2023-04-01T05:08:27;7.80;99.90
1702;DHT22;848;48.354;10.064;2023-04-01T05:10:58;7.80;99.90
1702;DHT22;848;48.354;10.064;2023-04-01T05:13:26;7.80;99.90
1702;DHT22;848;48.354;10.064;2023-04-01T05:15:55;7.80;99.90
1702;DHT22;848;48.354;10.064;2023-04-01T05:18:22;7.80;99.90
1702;DHT22;848;48.354;10.064;2023-04-01T05:20:50;7.80;99.90
1702;DHT22;848;48.354;10.064;2023-04-01T05:23:17;7.80;99.90
1702;DHT22;848;48.354;10.064;2023-04-01T05:25:46;7.70;99.90
1702;DHT22;848;48.354;10.064;2023-04-01T05:28:14;7.70;99.90
1702;DHT22;848;48.354;10.064;2023-04-01T05:30:43;7.70;99.90
1702;DHT22;848;48.354;10.064;2023-04-01T05:33:13;7.80;99.90
1702;DHT22;848;48.354;10.064;2023-04-01T05:35:40;7.90;99.90
1702;DHT22;848;48.354;10.064;2023-04-01T05:38:07;7.90;99.90
1702;DHT22;848;48.354;10.064;2023-04-01T05:40:34;7.90;99.90
1702;DHT22;848;48.354;10.064;2023-04-01T05:43:01;7.90;99.90
1702;DHT22;848;48.354;10.064;2023-04-01T05:45:28;8.00;99.90
1702;DHT22;848;48.354;10.064;2023-04-01T05:47:59;8.00;99.90
1702;DHT22;848;48.354;10.064;2023-04-01T05:50:26;8.00;99.90
1702;DHT22;848;48.354;10.064;2023-04-01T05:52:53;8.00;99.90
1702;DHT22;848;48.354;10.064;2023-04-01T05:55:20;8.10;99.90
1702;DHT22;848;48.354;10.064;2023-04-01T05:57:47;8.10;99.90
1702;DHT22;848;48.354;10.064;2023-04-01T06:00:15;8.20;99.90
1702;DHT22;848;48.354;10.064;2023-04-01T06:02:45;8.20;99.90
1702;DHT22;848;48.354;10.064;2023-04-01T06:05:18;8.20;99.90
1702;DHT22;848;48.354;10.064;2023-04-01T06:07:45;8.20;99.90
1702;DHT22;848;48.354;10.064;2023-04-01T06:10:14;8.30;99.90
1702;DHT22;848;48.354;10.064;2023-04-01T06:12:51;8.40;99.90
1702;DHT22;848;48.354;10.064;2023-04-01T06:15:36;8.40;99.90
1702;DHT22;848;48.354;10.064;2023-04-01T06:21:11;8.40;99.90
1702;DHT22;848;48.354;10.064;2023-04-01T06:23:55;8.40;99.90
1702;DHT22;848;48.354;10.064;2023-04-01T06:26:30;8.50;99.90
1702;DHT22;848;48.354;10.064;2023-04-01T06:29:19;8.50;99.90
1702;DHT22;848;48.354;10.064;2023-04-01T06:32:09;8.50;99.90
1702;DHT22;848;48.354;10.064;2023-04-01T06:34:58;8.50;99.90
1702;DHT22;848;48.354;10.064;2023-04-01T06:37:50;8.50;99.90
1702;DHT22;848;48.354;10.064;2023-04-01T06:43:15;8.50;99.90
1702;DHT22;848;48.354;10.064;2023-04-01T06:45:50;8.50;99.90
1702;DHT22;848;48.354;10.064;2023-04-01T06:48:33;8.60;99.90
1702;DHT22;848;48.354;10.064;2023-04-01T06:51:12;8.70;99.90
1702;DHT22;848;48.354;10.064;2023-04-01T06:53:49;8.80;99.90
1702;DHT22;848;48.354;10.064;2023-04-01T06:56:23;8.70;99.90
1702;DHT22;848;48.354;10.064;2023-04-01T06:58:53;8.70;99.90
1702;DHT22;848;48.354;10.064;2023-04-01T07:01:24;8.70;99.90
1702;DHT22;848;48.354;10.064;2023-04-01T07:03:56;8.80;99.90
1702;DHT22;848;48.354;10.064;2023-04-01T07:06:28;8.90;99.90
1702;DHT22;848;48.354;10.064;2023-04-01T07:09:00;9.00;99.90
1702;DHT22;848;48.354;10.064;2023-04-01T07:11:31;9.00;99.90
1702;DHT22;848;48.354;10.064;2023-04-01T07:14:05;9.00;99.90
1702;DHT22;848;48.354;10.064;2023-04-01T07:16:39;9.00;99.90
1702;DHT22;848;48.354;10.064;2023-04-01T07:19:14;8.90;99.90
1702;DHT22;848;48.354;10.064;2023-04-01T07:21:47;8.90;99.90
1702;DHT22;848;48.354;10.064;2023-04-01T07:24:21;8.90;99.90
1702;DHT22;848;48.354;10.064;2023-04-01T07:26:53;8.90;99.90
1702;DHT22;848;48.354;10.064;2023-04-01T07:29:20;8.90;99.90
1702;DHT22;848;48.354;10.064;2023-04-01T07:32:07;8.90;99.90
1702;DHT22;848;48.354;10.064;2023-04-01T07:34:45;9.00;99.90
1702;DHT22;848;48.354;10.064;2023-04-01T07:37:21;9.10;99.90
1702;DHT22;848;48.354;10.064;2023-04-01T07:39:55;9.20;99.90
1702;DHT22;848;48.354;10.064;2023-04-01T07:42:31;9.20;99.90
1702;DHT22;848;48.354;10.064;2023-04-01T07:45:07;9.20;99.90
1702;DHT22;848;48.354;10.064;2023-04-01T07:47:50;9.20;99.90
1702;DHT22;848;48.354;10.064;2023-04-01T07:50:26;9.30;99.90
1702;DHT22;848;48.354;10.064;2023-04-01T07:53:02;9.30;99.90
1702;DHT22;848;48.354;10.064;2023-04-01T07:55:41;9.30;99.90
1702;DHT22;848;48.354;10.064;2023-04-01T07:58:14;9.30;99.90
1702;DHT22;848;48.354;10.064;2023-04-01T08:00:59;9.20;99.90
1702;DHT22;848;48.354;10.064;2023-04-01T08:03:43;9.40;99.90
1702;DHT22;848;48.354;10.064;2023-04-01T08:06:18;9.30;99.90
1702;DHT22;848;48.354;10.064;2023-04-01T08:08:58;9.20;99.90
1702;DHT22;848;48.354;10.064;2023-04-01T08:11:37;9.20;99.90
1702;DHT22;848;48.354;10.064;2023-04-01T08:14:13;9.20;99.90
1702;DHT22;848;48.354;10.064;2023-04-01T08:16:48;9.20;99.90
1702;DHT22;848;48.354;10.064;2023-04-01T08:19:25;9.20;99.90
1702;DHT22;848;48.354;10.064;2023-04-01T08:21:57;9.30;99.90
1702;DHT22;848;48.354;10.064;2023-04-01T08:24:29;9.30;99.90
1702;DHT22;848;48.354;10.064;2023-04-01T08:27:05;9.40;99.90
1702;DHT22;848;48.354;10.064;2023-04-01T08:29:38;9.50;99.90
1702;DHT22;848;48.354;10.064;2023-04-01T08:32:08;9.50;99.90
1702;DHT22;848;48.354;10.064;2023-04-01T08:34:39;9.50;99.90
1702;DHT22;848;48.354;10.064;2023-04-01T08:37:09;9.50;99.90
1702;DHT22;848;48.354;10.064;2023-04-01T08:39:40;9.60;99.90
1702;DHT22;848;48.354;10.064;2023-04-01T08:42:36;9.60;99.90
1702;DHT22;848;48.354;10.064;2023-04-01T08:45:23;9.60;99.90
1702;DHT22;848;48.354;10.064;2023-04-01T08:54:20;9.70;99.90
1702;DHT22;848;48.354;10.064;2023-04-01T08:56:59;9.60;99.90
1702;DHT22;848;48.354;10.064;2023-04-01T08:59:38;9.60;99.90
1702;DHT22;848;48.354;10.064;2023-04-01T09:02:35;9.60;99.90
1702;DHT22;848;48.354;10.064;2023-04-01T09:05:26;9.60;99.90
1702;DHT22;848;48.354;10.064;2023-04-01T09:08:11;9.60;99.90
1702;DHT22;848;48.354;10.064;2023-04-01T09:11:08;9.50;99.90
1702;DHT22;848;48.354;10.064;2023-04-01T09:14:04;9.50;99.90
1702;DHT22;848;48.354;10.064;2023-04-01T09:23:02;9.20;99.90
1702;DHT22;848;48.354;10.064;2023-04-01T09:28:41;9.20;99.90
1702;DHT22;848;48.354;10.064;2023-04-01T09:31:32;9.20;99.90
1702;DHT22;848;48.354;10.064;2023-04-01T09:34:30;9.10;99.90
1702;DHT22;848;48.354;10.064;2023-04-01T09:37:27;9.10;99.90
1702;DHT22;848;48.354;10.064;2023-04-01T09:40:16;9.20;99.90
1702;DHT22;848;48.354;10.064;2023-04-01T09:42:49;9.20;99.90
1702;DHT22;848;48.354;10.064;2023-04-01T09:48:30;9.20;99.90
1702;DHT22;848;48.354;10.064;2023-04-01T09:51:13;9.10;99.90
1702;DHT22;848;48.354;10.064;2023-04-01T09:53:58;9.30;99.90
1702;DHT22;848;48.354;10.064;2023-04-01T10:00:10;9.30;99.90
1702;DHT22;848;48.354;10.064;2023-04-01T10:03:15;9.20;99.90
1702;DHT22;848;48.354;10.064;2023-04-01T10:12:31;9.20;99.90
1702;DHT22;848;48.354;10.064;2023-04-01T10:15:36;9.20;99.90
1702;DHT22;848;48.354;10.064;2023-04-01T10:24:24;9.40;99.90
1702;DHT22;848;48.354;10.064;2023-04-01T10:27:10;9.40;99.90
1702;DHT22;848;48.354;10.064;2023-04-01T10:30:05;9.30;99.90
1702;DHT22;848;48.354;10.064;2023-04-01T10:33:10;9.40;99.90
1702;DHT22;848;48.354;10.064;2023-04-01T10:36:05;9.50;99.90
1702;DHT22;848;48.354;10.064;2023-04-01T10:42:20;9.60;99.90
1702;DHT22;848;48.354;10.064;2023-04-01T10:45:15;9.80;99.90
1702;DHT22;848;48.354;10.064;2023-04-01T10:51:16;9.80;99.90
1702;DHT22;848;48.354;10.064;2023-04-01T10:54:09;10.00;99.90
1702;DHT22;848;48.354;10.064;2023-04-01T10:56:50;9.90;99.90
1702;DHT22;848;48.354;10.064;2023-04-01T10:59:48;9.80;99.90
1702;DHT22;848;48.354;10.064;2023-04-01T11:15:22;9.80;99.90
1702;DHT22;848;48.354;10.064;2023-04-01T11:18:41;10.00;99.90
1702;DHT22;848;48.354;10.064;2023-04-01T11:21:52;10.00;99.90
1702;DHT22;848;48.354;10.064;2023-04-01T11:24:48;9.90;99.90
1702;DHT22;848;48.354;10.064;2023-04-01T11:27:42;9.80;99.90
1702;DHT22;848;48.354;10.064;2023-04-01T11:30:26;9.60;99.90
1702;DHT22;848;48.354;10.064;2023-04-01T11:33:00;9.40;99.90
1702;DHT22;848;48.354;10.064;2023-04-01T11:35:57;9.60;99.90
1702;DHT22;848;48.354;10.064;2023-04-01T11:38:39;9.50;99.90
1702;DHT22;848;48.354;10.064;2023-04-01T11:41:22;9.50;99.90
1702;DHT22;848;48.354;10.064;2023-04-01T11:44:04;9.60;99.90
1702;DHT22;848;48.354;10.064;2023-04-01T11:46:42;9.60;99.90
1702;DHT22;848;48.354;10.064;2023-04-01T11:49:25;9.30;99.90
1702;DHT22;848;48.354;10.064;2023-04-01T11:52:09;9.30;99.90
1702;DHT22;848;48.354;10.064;2023-04-01T11:54:55;9.40;99.90
1702;DHT22;848;48.354;10.064;2023-04-01T12:00:37;9.50;99.90
1702;DHT22;848;48.354;10.064;2023-04-01T12:03:21;9.50;99.90
1702;DHT22;848;48.354;10.064;2023-04-01T12:06:02;9.50;99.90
1702;DHT22;848;48.354;10.064;2023-04-01T12:08:38;9.60;99.90
1702;DHT22;848;48.354;10.064;2023-04-01T12:11:14;9.60;99.90
1702;DHT22;848;48.354;10.064;2023-04-01T12:13:47;9.50;99.90
1702;DHT22;848;48.354;10.064;2023-04-01T12:16:29;9.60;99.90
1702;DHT22;848;48.354;10.064;2023-04-01T12:19:03;9.70;99.90
1702;DHT22;848;48.354;10.064;2023-04-01T12:21:43;9.90;99.90
1702;DHT22;848;48.354;10.064;2023-04-01T12:27:31;10.00;99.90
1702;DHT22;848;48.354;10.064;2023-04-01T12:33:26;10.20;99.90
1702;DHT22;848;48.354;10.064;2023-04-01T12:36:05;10.30;99.90
1702;DHT22;848;48.354;10.064;2023-04-01T12:38:47;10.20;99.90
1702;DHT22;848;48.354;10.064;2023-04-01T12:41:24;10.40;99.90
1702;DHT22;848;48.354;10.064;2023-04-01T12:44:23;10.40;99.90
1702;DHT22;848;48.354;10.064;2023-04-01T12:47:07;10.60;99.90
1702;DHT22;848;48.354;10.064;2023-04-01T12:50:08;10.50;99.90
1702;DHT22;848;48.354;10.064;2023-04-01T12:52:55;10.50;99.90
1702;DHT22;848;48.354;10.064;2023-04-01T12:55:40;10.60;99.90
1702;DHT22;848;48.354;10.064;2023-04-01T12:58:34;10.60;99.90
1702;DHT22;848;48.354;10.064;2023-04-01T13:01:19;10.50;99.90
1702;DHT22;848;48.354;10.064;2023-04-01T13:04:05;10.70;99.90
1702;DHT22;848;48.354;10.064;2023-04-01T13:06:48;10.70;99.90
1702;DHT22;848;48.354;10.064;2023-04-01T13:09:31;10.70;99.90
1702;DHT22;848;48.354;10.064;2023-04-01T13:12:14;10.70;99.90
1702;DHT22;848;48.354;10.064;2023-04-01T13:15:10;10.70;99.90
1702;DHT22;848;48.354;10.064;2023-04-01T13:17:44;10.70;99.90
1702;DHT22;848;48.354;10.064;2023-04-01T13:20:19;10.70;99.90
1702;DHT22;848;48.354;10.064;2023-04-01T13:22:59;10.70;99.90
1702;DHT22;848;48.354;10.064;2023-04-01T13:25:38;10.60;99.90
1702;DHT22;848;48.354;10.064;2023-04-01T13:28:11;10.50;99.90
1702;DHT22;848;48.354;10.064;2023-04-01T13:30:49;10.40;99.90
1702;DHT22;848;48.354;10.064;2023-04-01T13:33:27;10.40;99.90
1702;DHT22;848;48.354;10.064;2023-04-01T13:36:07;10.50;99.90
1702;DHT22;848;48.354;10.064;2023-04-01T13:38:52;10.50;99.90
1702;DHT22;848;48.354;10.064;2023-04-01T13:41:33;10.50;99.90
1702;DHT22;848;48.354;10.064;2023-04-01T13:44:09;10.60;99.90
1702;DHT22;848;48.354;10.064;2023-04-01T13:46:57;10.70;99.90
1702;DHT22;848;48.354;10.064;2023-04-01T13:49:57;10.80;99.90
1702;DHT22;848;48.354;10.064;2023-04-01T13:52:47;10.80;99.90
1702;DHT22;848;48.354;10.064;2023-04-01T13:55:30;10.80;99.90
1702;DHT22;848;48.354;10.064;2023-04-01T13:58:12;10.80;99.90
1702;DHT22;848;48.354;10.064;2023-04-01T14:00:51;11.00;99.90
1702;DHT22;848;48.354;10.064;2023-04-01T14:03:51;11.00;99.90
1702;DHT22;848;48.354;10.064;2023-04-01T14:06:31;11.00;99.90
1702;DHT22;848;48.354;10.064;2023-04-01T14:09:15;11.00;99.90
1702;DHT22;848;48.354;10.064;2023-04-01T14:11:52;11.00;99.90
1702;DHT22;848;48.354;10.064;2023-04-01T14:14:31;11.10;99.90
1702;DHT22;848;48.354;10.064;2023-04-01T14:17:19;11.20;99.90
1702;DHT22;848;48.354;10.064;2023-04-01T14:23:02;11.20;99.90
1702;DHT22;848;48.354;10.064;2023-04-01T14:28:32;11.20;99.90
1702;DHT22;848;48.354;10.064;2023-04-01T14:31:24;11.10;99.90
1702;DHT22;848;48.354;10.064;2023-04-01T14:33:59;11.20;99.90
1702;DHT22;848;48.354;10.064;2023-04-01T14:36:48;11.00;99.90
1702;DHT22;848;48.354;10.064;2023-04-01T14:39:43;11.00;99.90
1702;DHT22;848;48.354;10.064;2023-04-01T14:42:31;10.90;99.90
1702;DHT22;848;48.354;10.064;2023-04-01T14:48:13;10.80;99.90
1702;DHT22;848;48.354;10.064;2023-04-01T14:50:44;10.70;99.90
1702;DHT22;848;48.354;10.064;2023-04-01T14:53:26;10.70;99.90
1702;DHT22;848;48.354;10.064;2023-04-01T14:55:54;10.70;99.90
1702;DHT22;848;48.354;10.064;2023-04-01T14:58:23;10.70;99.90
1702;DHT22;848;48.354;10.064;2023-04-01T15:01:01;10.70;99.90
1702;DHT22;848;48.354;10.064;2023-04-01T15:03:38;10.80;99.90
1702;DHT22;848;48.354;10.064;2023-04-01T15:06:32;10.70;99.90
1702;DHT22;848;48.354;10.064;2023-04-01T15:09:08;10.70;99.90
1702;DHT22;848;48.354;10.064;2023-04-01T15:11:50;10.70;99.90
1702;DHT22;848;48.354;10.064;2023-04-01T15:14:26;10.80;99.90
1702;DHT22;848;48.354;10.064;2023-04-01T15:17:03;10.80;99.90
1702;DHT22;848;48.354;10.064;2023-04-01T15:19:43;10.80;99.90
1702;DHT22;848;48.354;10.064;2023-04-01T15:22:34;10.80;99.90
1702;DHT22;848;48.354;10.064;2023-04-01T15:25:23;10.80;99.90
1702;DHT22;848;48.354;10.064;2023-04-01T15:28:00;10.80;99.90
1702;DHT22;848;48.354;10.064;2023-04-01T15:30:33;10.90;99.90
1702;DHT22;848;48.354;10.064;2023-04-01T15:33:20;10.90;99.90
1702;DHT22;848;48.354;10.064;2023-04-01T15:35:56;10.80;99.90
1702;DHT22;848;48.354;10.064;2023-04-01T15:38:33;10.70;99.90
1702;DHT22;848;48.354;10.064;2023-04-01T15:41:11;10.70;99.90
1702;DHT22;848;48.354;10.064;2023-04-01T15:43:41;10.70;99.90
1702;DHT22;848;48.354;10.064;2023-04-01T15:46:24;10.80;99.90
1702;DHT22;848;48.354;10.064;2023-04-01T15:49:18;10.60;99.90
1702;DHT22;848;48.354;10.064;2023-04-01T15:52:03;10.60;99.90
1702;DHT22;848;48.354;10.064;2023-04-01T15:57:43;10.60;99.90
1702;DHT22;848;48.354;10.064;2023-04-01T16:00:27;10.60;99.90
1702;DHT22;848;48.354;10.064;2023-04-01T16:03:13;10.60;99.90
1702;DHT22;848;48.354;10.064;2023-04-01T16:05:49;10.50;99.90
1702;DHT22;848;48.354;10.064;2023-04-01T16:08:40;10.50;99.90
1702;DHT22;848;48.354;10.064;2023-04-01T16:11:18;10.50;99.90
1702;DHT22;848;48.354;10.064;2023-04-01T16:13:56;10.50;99.90
1702;DHT22;848;48.354;10.064;2023-04-01T16:16:35;10.50;99.90
1702;DHT22;848;48.354;10.064;2023-04-01T16:19:30;10.50;99.90
1702;DHT22;848;48.354;10.064;2023-04-01T16:22:01;10.40;99.90
1702;DHT22;848;48.354;10.064;2023-04-01T16:24:34;10.40;99.90
1702;DHT22;848;48.354;10.064;2023-04-01T16:27:04;10.30;99.90
1702;DHT22;848;48.354;10.064;2023-04-01T16:29:40;10.30;99.90
1702;DHT22;848;48.354;10.064;2023-04-01T16:32:19;10.20;99.90
1702;DHT22;848;48.354;10.064;2023-04-01T16:34:58;10.20;99.90
1702;DHT22;848;48.354;10.064;2023-04-01T16:37:33;10.10;99.90
1702;DHT22;848;48.354;10.064;2023-04-01T16:40:13;10.10;99.90
1702;DHT22;848;48.354;10.064;2023-04-01T16:42:47;10.10;99.90
1702;DHT22;848;48.354;10.064;2023-04-01T16:45:24;10.10;99.90
1702;DHT22;848;48.354;10.064;2023-04-01T16:47:55;10.10;99.90
1702;DHT22;848;48.354;10.064;2023-04-01T16:50:24;10.10;99.90
1702;DHT22;848;48.354;10.064;2023-04-01T16:52:59;10.00;99.90
1702;DHT22;848;48.354;10.064;2023-04-01T16:55:35;10.00;99.90
1702;DHT22;848;48.354;10.064;2023-04-01T16:58:10;10.00;99.90
1702;DHT22;848;48.354;10.064;2023-04-01T17:00:48;9.90;99.90
1702;DHT22;848;48.354;10.064;2023-04-01T17:03:18;10.00;99.90
1702;DHT22;848;48.354;10.064;2023-04-01T17:06:00;9.90;99.90
1702;DHT22;848;48.354;10.064;2023-04-01T17:08:39;9.90;99.90
1702;DHT22;848;48.354;10.064;2023-04-01T17:11:17;9.90;99.90
1702;DHT22;848;48.354;10.064;2023-04-01T17:13:50;9.90;99.90
1702;DHT22;848;48.354;10.064;2023-04-01T17:16:49;10.00;99.90
1702;DHT22;848;48.354;10.064;2023-04-01T17:19:40;9.90;99.90
1702;DHT22;848;48.354;10.064;2023-04-01T17:22:17;9.90;99.90
1702;DHT22;848;48.354;10.064;2023-04-01T17:25:00;9.90;99.90
1702;DHT22;848;48.354;10.064;2023-04-01T17:27:39;9.90;99.90
1702;DHT22;848;48.354;10.064;2023-04-01T17:30:30;9.90;99.90
1702;DHT22;848;48.354;10.064;2023-04-01T17:33:27;9.90;99.90
1702;DHT22;848;48.354;10.064;2023-04-01T17:35:59;9.90;99.90
1702;DHT22;848;48.354;10.064;2023-04-01T17:38:46;9.90;99.90
1702;DHT22;848;48.354;10.064;2023-04-01T17:41:27;9.90;99.90
1702;DHT22;848;48.354;10.064;2023-04-01T17:44:02;9.90;99.90
1702;DHT22;848;48.354;10.064;2023-04-01T17:46:50;9.90;99.90
1702;DHT22;848;48.354;10.064;2023-04-01T17:49:28;9.90;99.90
1702;DHT22;848;48.354;10.064;2023-04-01T17:52:03;9.90;99.90
1702;DHT22;848;48.354;10.064;2023-04-01T17:54:39;9.90;99.90
1702;DHT22;848;48.354;10.064;2023-04-01T17:57:28;9.90;99.90
1702;DHT22;848;48.354;10.064;2023-04-01T18:00:02;9.80;99.90
1702;DHT22;848;48.354;10.064;2023-04-01T18:02:33;9.80;99.90
1702;DHT22;848;48.354;10.064;2023-04-01T18:08:15;9.80;99.90
1702;DHT22;848;48.354;10.064;2023-04-01T18:10:54;9.70;99.90
1702;DHT22;848;48.354;10.064;2023-04-01T18:13:39;9.70;99.90
1702;DHT22;848;48.354;10.064;2023-04-01T18:16:19;9.70;99.90
1702;DHT22;848;48.354;10.064;2023-04-01T18:18:54;9.70;99.90
1702;DHT22;848;48.354;10.064;2023-04-01T18:21:33;9.70;99.90
1702;DHT22;848;48.354;10.064;2023-04-01T18:24:10;9.60;99.90
1702;DHT22;848;48.354;10.064;2023-04-01T18:26:42;9.60;99.90
1702;DHT22;848;48.354;10.064;2023-04-01T18:29:23;9.60;99.90
1702;DHT22;848;48.354;10.064;2023-04-01T18:31:55;9.60;99.90
1702;DHT22;848;48.354;10.064;2023-04-01T18:34:40;9.60;99.90
1702;DHT22;848;48.354;10.064;2023-04-01T18:37:18;9.60;99.90
1702;DHT22;848;48.354;10.064;2023-04-01T18:39:48;9.60;99.90
1702;DHT22;848;48.354;10.064;2023-04-01T18:42:28;9.60;99.90